createdAt,value
2022-12-31T00:01:36.155Z,98793.25
2022-12-31T00:04:03.901Z,98794.97
2022-12-31T00:06:33.637Z,98783.72
2022-12-31T00:09:04.761Z,98766.16
2022-12-31T00:11:33.331Z,98781.75
2022-12-31T00:14:00.675Z,98791.28
2022-12-31T00:16:30.918Z,98793.09
2022-12-31T00:19:00.390Z,98767.19
2022-12-31T00:21:30.394Z,98787.06
2022-12-31T00:23:58.673Z,98787.88
2022-12-31T00:26:29.745Z,98781.22
2022-12-31T00:28:58.417Z,98785.53
2022-12-31T00:31:27.384Z,98771.19
2022-12-31T00:33:55.714Z,98779.34
2022-12-31T00:36:24.877Z,98784.75
2022-12-31T00:38:54.575Z,98782.94
2022-12-31T00:41:23.171Z,98782.81
2022-12-31T00:43:52.105Z,98775.50
2022-12-31T00:46:20.026Z,98783.94
2022-12-31T00:48:47.832Z,98773.72
2022-12-31T00:51:18.085Z,98763.88
2022-12-31T00:53:46.103Z,98772.59
2022-12-31T00:56:15.425Z,98781.84
2022-12-31T00:58:43.107Z,98758.84
2022-12-31T01:01:14.851Z,98770.31
2022-12-31T01:03:42.764Z,98759.28
2022-12-31T01:06:10.721Z,98769.91
2022-12-31T01:08:37.995Z,98772.34
2022-12-31T01:11:24.485Z,98763.50
2022-12-31T01:13:54.338Z,98776.34
2022-12-31T01:16:24.893Z,98756.84
2022-12-31T01:18:52.500Z,98773.94
2022-12-31T01:21:20.765Z,98774.94
2022-12-31T01:23:48.500Z,98775.75
2022-12-31T01:26:17.863Z,98774.16
2022-12-31T01:28:45.784Z,98774.28
2022-12-31T01:31:16.523Z,98772.56
2022-12-31T01:33:46.422Z,98778.69
2022-12-31T01:36:20.392Z,98751.41
2022-12-31T01:38:52.729Z,98762.91
2022-12-31T01:41:21.991Z,98769.56
2022-12-31T01:43:51.037Z,98746.28
2022-12-31T01:46:25.551Z,98760.81
2022-12-31T01:48:59.375Z,98761.22
2022-12-31T01:51:30.717Z,98753.75
2022-12-31T01:54:00.616Z,98761.06
2022-12-31T01:56:28.129Z,98769.25
2022-12-31T01:58:57.083Z,98731.53
2022-12-31T02:01:28.118Z,98746.69
2022-12-31T02:03:57.896Z,98757.25
2022-12-31T02:06:29.572Z,98759.75
2022-12-31T02:08:58.224Z,98754.63
2022-12-31T02:11:28.921Z,98755.44
2022-12-31T02:13:59.186Z,98754.16
2022-12-31T02:16:35.370Z,98756.16
2022-12-31T02:19:20.178Z,98749.00
2022-12-31T02:21:56.042Z,98753.91
2022-12-31T02:24:58.384Z,98758.50
2022-12-31T02:27:41.942Z,98762.16
2022-12-31T02:30:18.900Z,98756.06
2022-12-31T02:32:58.105Z,98751.03
2022-12-31T02:35:29.366Z,98764.38
2022-12-31T02:38:01.943Z,98770.47
2022-12-31T02:40:29.634Z,98763.00
2022-12-31T02:42:57.114Z,98756.97
2022-12-31T02:45:32.349Z,98756.97
2022-12-31T02:48:34.887Z,98769.72
2022-12-31T02:51:12.598Z,98766.47
2022-12-31T02:53:56.769Z,98759.63
2022-12-31T02:56:30.617Z,98762.97
2022-12-31T02:59:22.307Z,98761.94
2022-12-31T03:02:17.009Z,98771.09
2022-12-31T03:04:47.899Z,98775.41
2022-12-31T03:07:19.147Z,98769.81
2022-12-31T03:09:46.853Z,98775.22
2022-12-31T03:12:34.438Z,98781.41
2022-12-31T03:15:02.178Z,98773.19
2022-12-31T03:17:32.653Z,98758.88
2022-12-31T03:20:18.736Z,98773.38
2022-12-31T03:22:46.304Z,98776.22
2022-12-31T03:25:34.242Z,98783.78
2022-12-31T03:28:03.535Z,98750.28
2022-12-31T03:30:32.225Z,98784.03
2022-12-31T03:33:01.408Z,98763.19
2022-12-31T03:35:31.602Z,98764.38
2022-12-31T03:37:59.170Z,98773.78
2022-12-31T03:40:28.572Z,98761.81
2022-12-31T03:42:56.499Z,98786.09
2022-12-31T03:45:24.331Z,98790.88
2022-12-31T03:47:51.555Z,98793.25
2022-12-31T03:50:20.568Z,98797.16
2022-12-31T03:52:48.964Z,98804.50
2022-12-31T03:55:16.165Z,98793.25
2022-12-31T03:57:43.514Z,98806.16
2022-12-31T04:00:14.078Z,98798.13
2022-12-31T04:02:41.907Z,98795.63
2022-12-31T04:05:10.139Z,98785.78
2022-12-31T04:07:39.254Z,98775.50
2022-12-31T04:10:08.650Z,98776.19
2022-12-31T04:12:36.206Z,98790.06
2022-12-31T04:15:05.481Z,98795.25
2022-12-31T04:17:33.302Z,98803.97
2022-12-31T04:20:00.568Z,98809.94
2022-12-31T04:22:27.964Z,98797.91
2022-12-31T04:24:56.566Z,98804.78
2022-12-31T04:27:23.907Z,98810.06
2022-12-31T04:29:51.366Z,98812.03
2022-12-31T04:32:18.615Z,98815.94
2022-12-31T04:34:46.064Z,98815.72
2022-12-31T04:37:13.546Z,98818.38
2022-12-31T04:39:40.828Z,98825.88
2022-12-31T04:42:09.497Z,98827.03
2022-12-31T04:44:36.811Z,98826.00
2022-12-31T04:47:04.482Z,98834.50
2022-12-31T04:49:31.798Z,98827.63
2022-12-31T04:51:59.094Z,98834.06
2022-12-31T04:54:26.481Z,98840.03
2022-12-31T04:56:53.685Z,98842.78
2022-12-31T04:59:22.689Z,98841.66
2022-12-31T05:01:50.206Z,98850.72
2022-12-31T05:04:17.641Z,98856.66
2022-12-31T05:06:44.896Z,98858.03
2022-12-31T05:09:12.108Z,98853.56
2022-12-31T05:11:39.482Z,98861.84
2022-12-31T05:14:06.967Z,98860.81
2022-12-31T05:16:35.674Z,98858.16
2022-12-31T05:19:06.502Z,98877.66
2022-12-31T05:21:33.902Z,98880.84
2022-12-31T05:24:01.156Z,98882.56
2022-12-31T05:26:28.379Z,98897.00
2022-12-31T05:28:56.735Z,98905.63
2022-12-31T05:31:23.937Z,98905.84
2022-12-31T05:33:53.003Z,98908.59
2022-12-31T05:36:20.463Z,98899.31
2022-12-31T05:38:47.804Z,98921.84
2022-12-31T05:41:15.114Z,98923.91
2022-12-31T05:43:42.369Z,98927.38
2022-12-31T05:46:09.669Z,98938.22
2022-12-31T05:48:37.067Z,98934.13
2022-12-31T05:51:06.371Z,98940.66
2022-12-31T05:53:34.576Z,98953.84
2022-12-31T05:56:02.252Z,98958.19
2022-12-31T05:58:29.626Z,98967.25
2022-12-31T06:00:56.936Z,98973.31
2022-12-31T06:03:24.521Z,98965.66
2022-12-31T06:05:51.900Z,98972.56
2022-12-31T06:08:20.733Z,98969.72
2022-12-31T06:10:48.052Z,98979.66
2022-12-31T06:13:15.467Z,98987.38
2022-12-31T06:15:43.005Z,98986.19
2022-12-31T06:18:10.402Z,98993.88
2022-12-31T06:20:38.515Z,98998.44
2022-12-31T06:23:06.323Z,99000.91
2022-12-31T06:25:37.831Z,98996.28
2022-12-31T06:28:05.457Z,99016.94
2022-12-31T06:30:33.868Z,99017.16
2022-12-31T06:33:01.422Z,99014.50
2022-12-31T06:35:28.889Z,99023.09
2022-12-31T06:37:56.323Z,99019.19
2022-12-31T06:40:23.728Z,99039.88
2022-12-31T06:42:59.679Z,99045.31
2022-12-31T06:45:28.329Z,99045.22
2022-12-31T06:47:55.588Z,99038.06
2022-12-31T06:50:22.973Z,99032.28
2022-12-31T06:52:50.166Z,99051.16
2022-12-31T06:55:18.392Z,99053.34
2022-12-31T06:57:46.397Z,99063.03
2022-12-31T07:00:17.056Z,99058.06
2022-12-31T07:03:16.220Z,99067.03
2022-12-31T07:05:51.381Z,99071.88
2022-12-31T07:08:34.041Z,99064.03
2022-12-31T07:11:05.993Z,99079.28
2022-12-31T07:14:00.145Z,99076.97
2022-12-31T07:16:38.565Z,99079.59
2022-12-31T07:19:17.859Z,99085.16
2022-12-31T07:21:45.848Z,99089.72
2022-12-31T07:24:14.643Z,99085.91
2022-12-31T07:26:57.209Z,99098.34
2022-12-31T07:29:32.545Z,99099.69
2022-12-31T07:32:11.621Z,99107.81
2022-12-31T07:34:51.267Z,99106.13
2022-12-31T07:37:30.069Z,99087.56
2022-12-31T07:40:03.382Z,99103.91
2022-12-31T07:42:39.169Z,99103.47
2022-12-31T07:45:19.513Z,99111.75
2022-12-31T07:47:48.969Z,99125.59
2022-12-31T07:50:23.301Z,99115.09
2022-12-31T07:52:51.176Z,99129.81
2022-12-31T07:55:18.508Z,99131.31
2022-12-31T07:57:55.666Z,99142.44
2022-12-31T08:00:23.795Z,99131.63
2022-12-31T08:03:14.410Z,99123.16
2022-12-31T08:05:51.357Z,99139.03
2022-12-31T08:08:29.566Z,99141.84
2022-12-31T08:11:06.089Z,99117.88
2022-12-31T08:13:33.901Z,99151.88
2022-12-31T08:16:02.791Z,99145.34
2022-12-31T08:18:32.044Z,99153.41
2022-12-31T08:21:08.967Z,99150.06
2022-12-31T08:23:47.562Z,99153.28
2022-12-31T08:26:27.711Z,99149.94
2022-12-31T08:29:05.188Z,99152.38
2022-12-31T08:31:41.102Z,99154.66
2022-12-31T08:34:17.270Z,99155.78
2022-12-31T08:36:52.744Z,99152.47
2022-12-31T08:39:31.084Z,99127.78
2022-12-31T08:42:00.381Z,99139.59
2022-12-31T08:44:37.198Z,99175.78
2022-12-31T08:47:14.620Z,99153.41
2022-12-31T08:49:43.782Z,99172.19
2022-12-31T08:52:16.213Z,99178.50
2022-12-31T08:54:44.090Z,99182.78
2022-12-31T08:57:23.468Z,99169.22
2022-12-31T09:00:01.879Z,99176.78
2022-12-31T09:02:56.075Z,99181.31
2022-12-31T09:05:29.446Z,99185.75
2022-12-31T09:08:11.480Z,99190.63
2022-12-31T09:10:45.830Z,99179.69
2022-12-31T09:13:22.310Z,99177.81
2022-12-31T09:15:59.008Z,99207.72
2022-12-31T09:18:33.020Z,99211.44
2022-12-31T09:21:02.499Z,99210.72
2022-12-31T09:23:30.439Z,99208.25
2022-12-31T09:26:03.640Z,99212.28
2022-12-31T09:28:43.361Z,99218.38
2022-12-31T09:31:16.862Z,99213.84
2022-12-31T09:33:52.504Z,99196.72
2022-12-31T09:36:30.515Z,99231.00
2022-12-31T09:39:06.917Z,99208.53
2022-12-31T09:42:07.393Z,99229.78
2022-12-31T09:45:24.949Z,99237.47
2022-12-31T09:48:21.612Z,99241.28
2022-12-31T09:51:03.382Z,99249.16
2022-12-31T09:53:43.158Z,99245.97
2022-12-31T09:56:17.635Z,99233.44
2022-12-31T09:58:53.159Z,99253.13
2022-12-31T10:01:31.247Z,99274.22
2022-12-31T10:04:29.466Z,99268.75
2022-12-31T10:07:07.545Z,99275.84
2022-12-31T10:09:55.852Z,99293.31
2022-12-31T10:13:07.694Z,99294.75
2022-12-31T10:16:18.330Z,99291.41
2022-12-31T10:19:04.401Z,99231.13
2022-12-31T10:21:49.665Z,99283.53
2022-12-31T10:24:49.572Z,99290.91
2022-12-31T10:27:32.139Z,99284.44
2022-12-31T10:30:09.148Z,99282.84
2022-12-31T10:32:44.406Z,99284.16
2022-12-31T10:35:30.271Z,99287.78
2022-12-31T10:38:09.769Z,99280.13
2022-12-31T10:41:10.219Z,99278.50
2022-12-31T10:44:31.581Z,99285.28
2022-12-31T10:47:54.058Z,99286.16
2022-12-31T10:50:40.609Z,99266.22
2022-12-31T10:53:46.175Z,99293.13
2022-12-31T10:57:01.275Z,99291.13
2022-12-31T11:00:06.686Z,99303.09
2022-12-31T11:03:02.759Z,99301.53
2022-12-31T11:06:05.267Z,99318.34
2022-12-31T11:09:07.848Z,99317.63
2022-12-31T11:11:45.251Z,99320.56
2022-12-31T11:14:35.210Z,99294.25
2022-12-31T11:17:31.392Z,99349.22
2022-12-31T11:20:15.358Z,99348.09
2022-12-31T11:23:01.630Z,99349.31
2022-12-31T11:25:40.577Z,99343.97
2022-12-31T11:28:49.286Z,99348.00
2022-12-31T11:31:33.120Z,99347.91
2022-12-31T11:34:20.164Z,99318.81
2022-12-31T11:36:56.945Z,99339.31
2022-12-31T11:39:39.742Z,99371.91
2022-12-31T11:42:19.826Z,99366.97
2022-12-31T11:44:54.918Z,99392.69
2022-12-31T11:50:57.095Z,99395.28
2022-12-31T11:53:55.191Z,99401.75
2022-12-31T11:56:26.249Z,99390.03
2022-12-31T11:58:55.117Z,99390.84
2022-12-31T12:01:27.514Z,99385.81
2022-12-31T12:03:56.616Z,99392.47
2022-12-31T12:06:27.555Z,99395.09
2022-12-31T12:08:59.477Z,99411.03
2022-12-31T12:11:30.738Z,99397.84
2022-12-31T12:13:58.209Z,99416.44
2022-12-31T12:16:26.990Z,99410.06
2022-12-31T12:19:04.989Z,99427.03
2022-12-31T12:21:32.723Z,99432.19
2022-12-31T12:24:03.176Z,99435.22
2022-12-31T12:26:35.262Z,99437.66
2022-12-31T12:29:10.569Z,99424.72
2022-12-31T12:31:38.358Z,99426.16
2022-12-31T12:34:23.064Z,99428.63
2022-12-31T12:36:50.645Z,99433.56
2022-12-31T12:39:22.767Z,99443.94
2022-12-31T12:42:10.916Z,99434.69
2022-12-31T12:44:38.560Z,99428.09
2022-12-31T12:47:08.505Z,99439.81
2022-12-31T12:49:41.507Z,99435.41
2022-12-31T12:52:35.320Z,99435.91
2022-12-31T12:55:17.157Z,99427.72
2022-12-31T12:57:49.523Z,99436.00
2022-12-31T13:00:20.126Z,99428.50
2022-12-31T13:03:23.030Z,99438.28
2022-12-31T13:06:18.381Z,99433.88
2022-12-31T13:09:04.759Z,99431.25
2022-12-31T13:11:40.494Z,99437.09
2022-12-31T13:14:19.794Z,99438.44
2022-12-31T13:16:57.550Z,99444.09
2022-12-31T13:19:35.035Z,99448.94
2022-12-31T13:22:09.294Z,99438.25
2022-12-31T13:24:52.072Z,99445.50
2022-12-31T13:27:24.143Z,99444.84
2022-12-31T13:29:55.263Z,99448.91
2022-12-31T13:32:33.800Z,99415.41
2022-12-31T13:35:13.001Z,99437.75
2022-12-31T13:37:43.078Z,99426.97
2022-12-31T13:40:20.027Z,99431.19
2022-12-31T13:42:55.305Z,99454.84
2022-12-31T13:45:27.044Z,99438.47
2022-12-31T13:48:00.782Z,99437.34
2022-12-31T13:50:34.684Z,99443.00
2022-12-31T13:53:14.083Z,99440.59
2022-12-31T13:55:46.189Z,99433.22
2022-12-31T13:58:21.655Z,99452.03
2022-12-31T14:00:54.377Z,99429.72
2022-12-31T14:03:31.765Z,99392.56
2022-12-31T14:06:06.589Z,99443.94
2022-12-31T14:08:35.216Z,99442.00
2022-12-31T14:11:14.316Z,99452.81
2022-12-31T14:13:59.229Z,99443.41
2022-12-31T14:16:37.032Z,99443.00
2022-12-31T14:19:28.977Z,99431.47
2022-12-31T14:22:04.608Z,99455.13
2022-12-31T14:24:45.400Z,99403.59
2022-12-31T14:27:18.146Z,99446.53
2022-12-31T14:29:52.483Z,99450.75
2022-12-31T14:32:47.037Z,99436.81
2022-12-31T14:35:28.227Z,99430.03
2022-12-31T14:38:03.267Z,99434.88
2022-12-31T14:40:44.920Z,99450.72
2022-12-31T14:43:22.516Z,99449.78
2022-12-31T14:46:04.190Z,99448.56
2022-12-31T14:48:53.880Z,99444.38
2022-12-31T14:51:21.352Z,99434.94
2022-12-31T14:53:56.930Z,99442.56
2022-12-31T14:56:38.041Z,99443.47
2022-12-31T14:59:25.500Z,99447.78
2022-12-31T15:01:53.931Z,99457.97
2022-12-31T15:04:45.906Z,99455.34
2022-12-31T15:07:23.684Z,99451.13
2022-12-31T15:10:03.203Z,99456.06
2022-12-31T15:13:03.519Z,99458.78
2022-12-31T15:15:41.713Z,99470.59
2022-12-31T15:18:27.982Z,99458.59
2022-12-31T15:21:25.050Z,99463.84
2022-12-31T15:23:52.874Z,99463.09
2022-12-31T15:26:27.303Z,99462.22
2022-12-31T15:29:00.850Z,99455.34
2022-12-31T15:31:29.361Z,99463.91
2022-12-31T15:34:00.816Z,99450.88
2022-12-31T15:36:32.506Z,99465.25
2022-12-31T15:39:36.064Z,99467.34
2022-12-31T15:42:37.282Z,99455.03
2022-12-31T15:44:59.472Z,99422.31
2022-12-31T15:47:31.328Z,99433.44
2022-12-31T15:50:02.108Z,99449.53
2022-12-31T15:52:39.715Z,99439.22
2022-12-31T15:55:07.984Z,99442.47
2022-12-31T15:57:39.620Z,99434.00
2022-12-31T16:00:16.983Z,99440.63
2022-12-31T16:02:45.579Z,99452.97
2022-12-31T16:05:21.743Z,99443.00
2022-12-31T16:07:52.168Z,99443.69
2022-12-31T16:10:23.988Z,99442.09
2022-12-31T16:12:52.663Z,99444.41
2022-12-31T16:15:24.493Z,99451.34
2022-12-31T16:18:01.251Z,99429.34
2022-12-31T16:20:31.297Z,99450.53
2022-12-31T16:23:01.815Z,99427.91
2022-12-31T16:25:32.252Z,99449.28
2022-12-31T16:28:02.928Z,99443.63
2022-12-31T16:30:33.689Z,99457.56
2022-12-31T16:33:04.018Z,99451.72
2022-12-31T16:35:33.559Z,99429.25
2022-12-31T16:38:03.748Z,99429.69
2022-12-31T16:40:31.257Z,99431.13
2022-12-31T16:42:58.741Z,99433.13
2022-12-31T16:45:34.365Z,99423.03
2022-12-31T16:48:12.820Z,99392.53
2022-12-31T16:50:44.509Z,99412.00
2022-12-31T16:53:17.604Z,99415.31
2022-12-31T16:55:52.797Z,99429.53
2022-12-31T16:58:25.387Z,99420.44
2022-12-31T17:00:56.194Z,99403.81
2022-12-31T17:03:25.584Z,99397.16
2022-12-31T17:06:00.872Z,99434.56
2022-12-31T17:08:38.529Z,99421.88
2022-12-31T17:11:06.150Z,99422.41
2022-12-31T17:13:35.133Z,99403.78
2022-12-31T17:16:04.197Z,99423.03
2022-12-31T17:18:37.241Z,99408.72
2022-12-31T17:21:07.508Z,99423.22
2022-12-31T17:23:37.965Z,99410.16
2022-12-31T17:26:10.034Z,99392.28
2022-12-31T17:28:43.578Z,99401.91
2022-12-31T17:31:34.477Z,99412.22
2022-12-31T17:34:23.445Z,99399.13
2022-12-31T17:37:18.337Z,99397.41
2022-12-31T17:39:48.634Z,99384.81
2022-12-31T17:42:24.908Z,99384.31
2022-12-31T17:44:56.816Z,99382.66
2022-12-31T17:47:33.834Z,99380.97
2022-12-31T17:50:19.695Z,99383.28
2022-12-31T17:52:47.662Z,99373.97
2022-12-31T17:55:15.689Z,99378.81
2022-12-31T17:57:49.402Z,99370.56
2022-12-31T18:00:19.035Z,99359.22
2022-12-31T18:02:48.158Z,99373.63
2022-12-31T18:05:16.934Z,99369.59
2022-12-31T18:07:55.102Z,99364.09
2022-12-31T18:10:24.349Z,99371.66
2022-12-31T18:12:52.006Z,99370.56
2022-12-31T18:15:21.542Z,99364.09
2022-12-31T18:17:51.039Z,99351.63
2022-12-31T18:20:18.857Z,99366.81
2022-12-31T18:22:46.206Z,99361.88
2022-12-31T18:25:17.319Z,99360.53
2022-12-31T18:27:44.990Z,99355.41
2022-12-31T18:30:13.290Z,99372.13
2022-12-31T18:32:41.816Z,99351.63
2022-12-31T18:35:40.391Z,99341.47
2022-12-31T18:38:03.212Z,99341.94
2022-12-31T18:40:30.764Z,99341.31
2022-12-31T18:43:04.510Z,99349.19
2022-12-31T18:45:32.496Z,99358.00
2022-12-31T18:47:59.921Z,99356.03
2022-12-31T18:50:28.764Z,99343.56
2022-12-31T18:52:56.410Z,99331.13
2022-12-31T18:55:27.241Z,99324.59
2022-12-31T18:57:54.641Z,99324.59
2022-12-31T19:00:22.150Z,99316.22
2022-12-31T19:02:49.422Z,99312.81
2022-12-31T19:05:25.319Z,99312.28
2022-12-31T19:07:54.576Z,99309.66
2022-12-31T19:10:22.148Z,99298.38
2022-12-31T19:12:49.738Z,99305.56
2022-12-31T19:15:27.056Z,99302.84
2022-12-31T19:17:54.647Z,99310.66
2022-12-31T19:20:21.908Z,99302.50
2022-12-31T19:22:49.435Z,99281.97
2022-12-31T19:25:22.123Z,99276.63
2022-12-31T19:27:50.087Z,99287.66
2022-12-31T19:30:20.984Z,99274.53
2022-12-31T19:32:48.701Z,99287.00
2022-12-31T19:35:16.483Z,99276.13
2022-12-31T19:38:03.302Z,99265.47
2022-12-31T19:40:33.204Z,99272.63
2022-12-31T19:43:00.779Z,99274.44
2022-12-31T19:45:29.605Z,99267.59
2022-12-31T19:47:57.132Z,99257.50
2022-12-31T19:50:26.356Z,99264.06
2022-12-31T19:52:56.957Z,99253.06
2022-12-31T19:55:28.157Z,99258.81
2022-12-31T19:57:56.771Z,99251.25
2022-12-31T20:00:24.292Z,99249.47
2022-12-31T20:02:52.075Z,99230.50
2022-12-31T20:05:19.651Z,99242.41
2022-12-31T20:07:47.217Z,99243.81
2022-12-31T20:10:14.795Z,99258.91
2022-12-31T20:12:44.531Z,99247.66
2022-12-31T20:15:13.768Z,99246.28
2022-12-31T20:17:41.122Z,99252.50
2022-12-31T20:20:09.073Z,99245.03
2022-12-31T20:22:36.548Z,99248.22
2022-12-31T20:25:04.288Z,99245.41
2022-12-31T20:27:31.746Z,99249.41
2022-12-31T20:29:59.153Z,99245.28
2022-12-31T20:32:27.742Z,99238.72
2022-12-31T20:34:55.217Z,99239.16
2022-12-31T20:37:22.475Z,99240.13
2022-12-31T20:39:49.810Z,99226.88
2022-12-31T20:42:17.064Z,99215.78
2022-12-31T20:44:44.340Z,99218.97
2022-12-31T20:47:11.541Z,99198.22
2022-12-31T20:52:27.713Z,99181.78
2022-12-31T20:54:54.988Z,99172.03
2022-12-31T20:57:22.522Z,99168.81
2022-12-31T20:59:49.773Z,99166.38
2022-12-31T21:02:21.532Z,99163.66
2022-12-31T21:04:51.026Z,99175.44
2022-12-31T21:07:18.659Z,99158.13
2022-12-31T21:09:45.860Z,99160.47
2022-12-31T21:12:31.732Z,99144.66
2022-12-31T21:14:59.165Z,99144.66
2022-12-31T21:17:26.455Z,99146.06
2022-12-31T21:19:55.227Z,99150.28
2022-12-31T21:22:24.271Z,99147.69
2022-12-31T21:24:51.686Z,99134.00
2022-12-31T21:27:19.033Z,99135.03
2022-12-31T21:30:16.812Z,99120.75
2022-12-31T21:32:33.949Z,99128.16
2022-12-31T21:35:40.331Z,99134.13
2022-12-31T21:37:58.671Z,99128.97
2022-12-31T21:40:28.618Z,99130.69
2022-12-31T21:42:56.041Z,99130.59
2022-12-31T21:45:23.388Z,99120.75
2022-12-31T21:48:08.914Z,99134.34
2022-12-31T21:50:37.923Z,99138.47
2022-12-31T21:53:05.399Z,99127.09
2022-12-31T21:55:51.390Z,99134.34
2022-12-31T21:58:27.662Z,99125.00
2022-12-31T22:01:14.389Z,99127.72
2022-12-31T22:03:41.531Z,99119.88
2022-12-31T22:06:14.066Z,99110.91
2022-12-31T22:08:42.928Z,99106.88
2022-12-31T22:11:12.046Z,99097.22
2022-12-31T22:13:40.198Z,99088.44
2022-12-31T22:16:08.360Z,99087.75
2022-12-31T22:18:39.107Z,99012.59
2022-12-31T22:21:15.560Z,99070.75
2022-12-31T22:23:48.081Z,99057.38
2022-12-31T22:26:16.971Z,99073.25
2022-12-31T22:28:46.300Z,99069.47
2022-12-31T22:31:16.233Z,99076.09
2022-12-31T22:33:43.999Z,99061.41
2022-12-31T22:36:13.321Z,99020.53
2022-12-31T22:38:40.806Z,99060.53
2022-12-31T22:41:11.085Z,99056.38
2022-12-31T22:43:40.113Z,99052.25
2022-12-31T22:46:09.224Z,99050.56
2022-12-31T22:48:37.003Z,99046.22
2022-12-31T22:51:05.087Z,99042.31
2022-12-31T22:53:32.358Z,99040.47
2022-12-31T22:55:59.658Z,99047.94
2022-12-31T22:58:28.616Z,99046.31
2022-12-31T23:00:56.170Z,99032.34
2022-12-31T23:03:23.601Z,99034.66
2022-12-31T23:05:52.646Z,99028.22
2022-12-31T23:08:23.375Z,99026.91
2022-12-31T23:11:01.974Z,99015.03
2022-12-31T23:13:54.342Z,98994.81
2022-12-31T23:16:39.922Z,99012.22
2022-12-31T23:19:26.190Z,99002.66
2022-12-31T23:22:12.750Z,98991.38
2022-12-31T23:24:40.483Z,98997.63
2022-12-31T23:27:08.661Z,99000.84
2022-12-31T23:29:46.217Z,98984.72
2022-12-31T23:32:15.439Z,99005.47
2022-12-31T23:34:43.725Z,99004.66
2022-12-31T23:37:11.133Z,99002.34
2022-12-31T23:39:38.648Z,98993.28
2022-12-31T23:42:06.080Z,98975.66
2022-12-31T23:44:33.316Z,98986.97
2022-12-31T23:47:02.015Z,98972.47
2022-12-31T23:49:29.484Z,98976.69
2022-12-31T23:51:56.786Z,98975.06
2022-12-31T23:54:24.217Z,98973.44
2022-12-31T23:56:51.472Z,98956.75
2022-12-31T23:59:18.732Z,98965.00
